Time;durP1;ratioP1;P1;durP2;ratioP2;P2;SDS_P1;SDS_P2;PMS_P1;PMS_P2;Temp;Humidity;BMP_temperature;BMP_pressure;BME280_temperature;BME280_humidity;BME280_pressure;Samples;Min_cycle;Max_cycle;Signal;HPM_P1;HPM_P2
2023/02/04 00:00:59;;;;;;;13.37;7.83;;;-0.50;99.90;;;;;;4162679;28;20686;-61
2023/02/04 00:03:00;;;;;;;12.57;7.60;;;-0.50;99.90;;;;;;4162411;28;20263;-61
2023/02/04 00:05:01;;;;;;;13.97;7.00;;;-0.50;99.90;;;;;;4163701;28;20321;-62
2023/02/04 00:07:03;;;;;;;12.90;7.13;;;-0.50;99.90;;;;;;4177968;28;20274;-61
2023/02/04 00:09:04;;;;;;;15.53;8.30;;;-0.50;99.90;;;;;;4179096;28;20798;-63
2023/02/04 00:11:05;;;;;;;13.77;7.60;;;-0.50;99.90;;;;;;4170950;28;20353;-62
2023/02/04 00:13:06;;;;;;;12.03;7.17;;;-0.50;99.90;;;;;;4163245;28;20263;-62
2023/02/04 00:15:07;;;;;;;12.10;7.37;;;-0.50;99.90;;;;;;4161356;28;20344;-62
2023/02/04 00:17:11;;;;;;;15.43;7.70;;;-0.50;99.90;;;;;;4164924;28;20677;-63
2023/02/04 00:19:15;;;;;;;14.20;8.00;;;-0.50;99.90;;;;;;4164821;28;20294;-61
2023/02/04 00:21:16;;;;;;;11.97;6.90;;;-0.40;99.90;;;;;;4161672;28;20762;-62
2023/02/04 00:23:18;;;;;;;9.33;5.27;;;-0.40;99.90;;;;;;4178999;28;20266;-60
2023/02/04 00:25:19;;;;;;;11.43;6.70;;;-0.50;99.90;;;;;;4178818;28;20270;-63
2023/02/04 00:27:20;;;;;;;11.90;6.93;;;-0.50;99.90;;;;;;4160880;28;20271;-62
2023/02/04 00:29:21;;;;;;;14.77;7.87;;;-0.40;99.90;;;;;;4164632;28;20267;-62
2023/02/04 00:31:22;;;;;;;12.77;7.47;;;-0.40;99.90;;;;;;4162992;28;20623;-62
2023/02/04 00:33:23;;;;;;;12.40;6.93;;;-0.40;99.90;;;;;;4171880;28;20844;-62
2023/02/04 00:35:25;;;;;;;10.03;7.00;;;-0.40;99.90;;;;;;4178067;28;20301;-64
2023/02/04 00:37:26;;;;;;;10.97;7.00;;;-0.40;99.90;;;;;;4161794;28;20336;-62
2023/02/04 00:39:27;;;;;;;11.53;6.93;;;-0.30;99.90;;;;;;4162739;28;20356;-60
2023/02/04 00:41:28;;;;;;;12.17;7.10;;;-0.40;99.90;;;;;;4161814;28;20662;-61
2023/02/04 00:43:29;;;;;;;17.20;8.37;;;-0.40;99.90;;;;;;4170875;28;20312;-61
2023/02/04 00:45:30;;;;;;;14.47;7.17;;;-0.40;99.90;;;;;;4174863;28;20286;-60
2023/02/04 00:47:31;;;;;;;10.03;6.80;;;-0.40;99.90;;;;;;4162594;28;20743;-61
2023/02/04 00:49:33;;;;;;;16.27;7.70;;;-0.40;99.90;;;;;;4170746;28;20382;-61
2023/02/04 00:51:38;;;;;;;10.70;5.70;;;-0.40;99.90;;;;;;4179172;28;20331;-62
2023/02/04 00:53:39;;;;;;;8.60;5.73;;;-0.50;99.90;;;;;;4164990;28;20755;-62
2023/02/04 00:55:41;;;;;;;11.13;5.43;;;-0.50;99.90;;;;;;4162078;28;20271;-63
2023/02/04 00:57:42;;;;;;;9.90;6.93;;;-0.50;99.90;;;;;;4161239;28;20697;-61
2023/02/04 00:59:44;;;;;;;11.00;6.30;;;-0.50;99.90;;;;;;4161353;28;20290;-62
2023/02/04 01:01:45;;;;;;;12.93;7.90;;;-0.60;99.90;;;;;;4161863;28;20828;-61
2023/02/04 01:03:46;;;;;;;18.23;8.97;;;-0.50;99.90;;;;;;4160925;28;20313;-61
2023/02/04 01:05:48;;;;;;;17.37;9.10;;;-0.50;99.90;;;;;;4162345;28;20321;-62
2023/02/04 01:07:49;;;;;;;21.03;8.37;;;-0.50;99.90;;;;;;4163431;28;20267;-62
2023/02/04 01:09:50;;;;;;;20.30;8.53;;;-0.60;99.90;;;;;;4178899;28;20258;-61
2023/02/04 01:11:51;;;;;;;13.30;7.67;;;-0.50;99.90;;;;;;4177470;28;20246;-63
2023/02/04 01:13:53;;;;;;;16.20;8.10;;;-0.50;99.90;;;;;;4178837;28;20320;-64
2023/02/04 01:15:54;;;;;;;13.03;7.57;;;-0.50;99.90;;;;;;4177303;28;20278;-67
2023/02/04 01:17:55;;;;;;;11.27;6.87;;;-0.50;99.90;;;;;;4177640;28;20266;-61
2023/02/04 01:19:56;;;;;;;14.27;7.50;;;-0.50;99.90;;;;;;4174792;28;20290;-61
2023/02/04 01:21:57;;;;;;;16.07;8.27;;;-0.50;99.90;;;;;;4174524;28;20321;-61
2023/02/04 01:23:58;;;;;;;12.80;7.67;;;-0.50;99.90;;;;;;4176675;28;20733;-61
2023/02/04 01:25:59;;;;;;;11.17;7.00;;;-0.50;99.90;;;;;;4177250;28;20308;-61
2023/02/04 01:28:01;;;;;;;14.83;7.43;;;-0.60;99.90;;;;;;4175677;28;20270;-65
2023/02/04 01:30:06;;;;;;;12.93;7.90;;;-0.60;99.90;;;;;;4177647;28;20279;-62
2023/02/04 01:32:07;;;;;;;11.30;7.93;;;-0.60;99.90;;;;;;4177927;28;20273;-64
2023/02/04 01:34:08;;;;;;;12.80;7.93;;;-0.60;99.90;;;;;;4165435;28;20823;-61
2023/02/04 01:36:10;;;;;;;12.70;7.47;;;-0.60;99.90;;;;;;4168083;28;20276;-60
2023/02/04 01:38:11;;;;;;;13.07;7.87;;;-0.60;99.90;;;;;;4177338;28;20258;-61
2023/02/04 01:40:12;;;;;;;12.40;7.53;;;-0.60;99.90;;;;;;4178079;28;20339;-61
2023/02/04 01:42:13;;;;;;;12.70;7.73;;;-0.60;99.90;;;;;;4177264;28;20316;-66
2023/02/04 01:44:15;;;;;;;13.60;7.83;;;-0.70;99.90;;;;;;4178463;28;20339;-61
2023/02/04 01:46:16;;;;;;;15.17;9.07;;;-0.60;99.90;;;;;;4176858;28;20311;-64
2023/02/04 01:48:20;;;;;;;11.17;6.97;;;-0.60;99.90;;;;;;4177760;28;20270;-67
2023/02/04 01:50:21;;;;;;;12.90;7.20;;;-0.60;99.90;;;;;;4176790;28;20323;-64
2023/02/04 01:52:23;;;;;;;13.33;7.80;;;-0.60;99.90;;;;;;4176348;28;21078;-62
2023/02/04 01:54:25;;;;;;;11.87;6.80;;;-0.50;99.90;;;;;;4176750;28;20692;-65
2023/02/04 01:56:29;;;;;;;12.17;8.37;;;-0.50;99.90;;;;;;4159592;28;20306;-63
2023/02/04 01:58:32;;;;;;;14.90;8.23;;;-0.50;99.90;;;;;;4158788;28;20369;-61
2023/02/04 02:00:34;;;;;;;15.50;8.47;;;-0.50;99.90;;;;;;4176290;28;20532;-61
2023/02/04 02:02:54;;;;;;;14.63;8.30;;;-0.50;99.90;;;;;;4177879;28;20351;-62
2023/02/04 02:04:55;;;;;;;12.27;7.95;;;-0.50;99.90;;;;;;4177634;28;20349;-63
2023/02/04 02:07:00;;;;;;;12.80;7.23;;;-0.50;99.90;;;;;;4177244;28;20796;-62
2023/02/04 02:09:02;;;;;;;11.70;7.20;;;-0.50;99.90;;;;;;4177376;28;20308;-62
2023/02/04 02:11:04;;;;;;;12.23;7.47;;;-0.50;99.90;;;;;;4178019;28;20332;-65
2023/02/04 02:13:07;;;;;;;12.20;6.90;;;-0.50;99.90;;;;;;4175211;28;20335;-61
2023/02/04 02:15:10;;;;;;;11.83;6.83;;;-0.50;99.90;;;;;;4178171;28;20266;-61
2023/02/04 02:17:11;;;;;;;12.47;7.37;;;-0.50;99.90;;;;;;4176883;28;20274;-61
2023/02/04 02:19:18;;;;;;;13.50;8.43;;;-0.50;99.90;;;;;;4178077;28;20298;-63
2023/02/04 02:21:29;;;;;;;15.83;8.20;;;-0.40;99.90;;;;;;4169415;28;20282;-62
2023/02/04 02:23:53;;;;;;;13.93;8.77;;;-0.40;99.90;;;;;;4162908;28;20333;-65
2023/02/04 02:25:54;;;;;;;13.80;7.70;;;-0.30;99.90;;;;;;4165029;28;20029;-63
2023/02/04 02:27:57;;;;;;;14.10;7.73;;;-0.30;99.90;;;;;;4166425;28;20336;-60
2023/02/04 02:29:58;;;;;;;14.70;7.90;;;-0.20;99.90;;;;;;4161457;28;20747;-64
2023/02/04 02:31:59;;;;;;;16.30;8.73;;;-0.20;99.90;;;;;;4164911;28;20686;-62
2023/02/04 02:34:01;;;;;;;12.07;7.93;;;-0.20;99.90;;;;;;4164205;28;20763;-63
2023/02/04 02:36:02;;;;;;;13.13;8.43;;;-0.20;99.90;;;;;;4169948;28;20676;-65
2023/02/04 02:38:03;;;;;;;14.73;8.37;;;-0.20;99.90;;;;;;4179381;28;20274;-61
2023/02/04 02:40:05;;;;;;;12.67;7.77;;;-0.20;99.90;;;;;;4180412;28;20294;-63
2023/02/04 02:42:08;;;;;;;16.07;8.87;;;-0.20;99.90;;;;;;4179214;28;20304;-66
2023/02/04 02:44:12;;;;;;;15.17;8.67;;;-0.10;99.90;;;;;;4180479;28;20282;-64
2023/02/04 02:46:13;;;;;;;14.80;8.20;;;0.00;99.90;;;;;;4179985;28;20282;-61
2023/02/04 02:48:15;;;;;;;13.20;8.10;;;-0.10;99.90;;;;;;4180533;28;20262;-62
2023/02/04 02:50:21;;;;;;;12.73;7.77;;;-0.10;99.90;;;;;;4180051;28;20292;-60
2023/02/04 02:52:22;;;;;;;12.97;8.33;;;0.00;99.90;;;;;;4180118;28;20669;-62
2023/02/04 02:54:28;;;;;;;17.43;9.70;;;0.00;99.90;;;;;;4172154;28;20332;-62
2023/02/04 02:56:29;;;;;;;15.63;8.63;;;0.00;99.90;;;;;;4163077;28;20395;-65
2023/02/04 02:58:33;;;;;;;17.60;10.40;;;0.10;99.90;;;;;;4164219;28;20286;-68
2023/02/04 03:00:34;;;;;;;19.60;10.70;;;0.10;99.90;;;;;;4163392;28;20369;-62
2023/02/04 03:02:36;;;;;;;20.40;10.87;;;0.00;99.90;;;;;;4164270;28;20263;-61
2023/02/04 03:04:42;;;;;;;21.60;11.40;;;0.10;99.90;;;;;;4145760;28;20314;-66
2023/02/04 03:06:44;;;;;;;18.27;10.60;;;0.10;99.90;;;;;;4164386;28;20669;-64
2023/02/04 03:08:46;;;;;;;22.57;11.40;;;0.10;99.90;;;;;;4162719;28;20267;-68
2023/02/04 03:10:48;;;;;;;19.80;10.70;;;0.10;99.90;;;;;;4164143;28;20313;-70
2023/02/04 03:12:49;;;;;;;25.97;13.17;;;0.10;99.90;;;;;;4162196;28;20390;-62
2023/02/04 03:14:50;;;;;;;21.40;11.93;;;0.10;99.90;;;;;;4163674;28;20679;-62
2023/02/04 03:16:53;;;;;;;21.63;12.20;;;0.10;99.90;;;;;;4163962;28;20994;-66
2023/02/04 03:18:55;;;;;;;24.63;12.80;;;0.20;99.90;;;;;;4161970;28;20332;-70
2023/02/04 03:20:57;;;;;;;24.60;12.93;;;0.20;99.90;;;;;;4163113;28;20275;-62
2023/02/04 03:22:59;;;;;;;24.07;12.97;;;0.20;99.90;;;;;;4164041;28;20275;-62
2023/02/04 03:25:00;;;;;;;22.13;11.60;;;0.20;99.90;;;;;;4163332;28;20316;-61
2023/02/04 03:27:02;;;;;;;24.77;11.80;;;0.20;99.90;;;;;;4166206;28;20400;-62
2023/02/04 03:29:07;;;;;;;24.07;11.77;;;0.20;99.90;;;;;;4171525;28;20336;-66
2023/02/04 03:31:08;;;;;;;21.17;11.10;;;0.20;99.90;;;;;;4179353;28;20266;-63
2023/02/04 03:33:09;;;;;;;23.63;12.17;;;0.20;99.90;;;;;;4179625;28;20284;-65
2023/02/04 03:35:10;;;;;;;23.33;11.77;;;0.20;99.90;;;;;;4169917;28;20396;-62
2023/02/04 03:37:11;;;;;;;27.43;13.67;;;0.20;99.90;;;;;;4177487;28;20281;-62
2023/02/04 03:39:12;;;;;;;21.77;11.93;;;0.20;99.90;;;;;;4178723;28;20298;-64
2023/02/04 03:41:14;;;;;;;23.90;12.77;;;0.10;99.90;;;;;;4179583;28;20270;-63
2023/02/04 03:43:15;;;;;;;31.33;12.23;;;-0.10;99.90;;;;;;4178670;28;20270;-61
2023/02/04 03:45:16;;;;;;;25.00;13.20;;;-0.10;99.90;;;;;;4179832;28;20262;-64
2023/02/04 03:47:17;;;;;;;26.47;12.97;;;-0.30;99.90;;;;;;4178710;28;20275;-62
2023/02/04 03:49:18;;;;;;;24.63;13.87;;;-0.30;99.90;;;;;;4180178;28;20322;-62
2023/02/04 03:51:19;;;;;;;23.40;12.10;;;-0.30;99.90;;;;;;4163598;28;20293;-62
2023/02/04 03:53:21;;;;;;;22.13;12.10;;;-0.30;99.90;;;;;;4163688;28;21049;-62
2023/02/04 03:55:22;;;;;;;20.10;11.33;;;-0.30;99.90;;;;;;4162340;28;20310;-61
2023/02/04 03:57:23;;;;;;;21.13;11.60;;;-0.40;99.90;;;;;;4169753;28;20290;-68
2023/02/04 03:59:24;;;;;;;20.33;11.43;;;-0.40;99.90;;;;;;4170654;28;20290;-62
2023/02/04 04:01:25;;;;;;;20.73;10.97;;;-0.40;99.90;;;;;;4162460;28;20336;-62
2023/02/04 04:03:26;;;;;;;18.97;10.27;;;-0.40;99.90;;;;;;4162324;28;20270;-62
2023/02/04 04:05:28;;;;;;;19.10;10.33;;;-0.40;99.90;;;;;;4169591;28;20262;-62
2023/02/04 04:07:29;;;;;;;18.97;10.10;;;-0.40;99.90;;;;;;4178931;28;20262;-67
2023/02/04 04:09:30;;;;;;;16.63;9.10;;;-0.40;99.90;;;;;;4177944;28;20734;-61
2023/02/04 04:11:31;;;;;;;20.53;10.53;;;-0.40;99.90;;;;;;4179371;28;20278;-64
2023/02/04 04:13:32;;;;;;;18.03;9.70;;;-0.40;99.90;;;;;;4178559;28;20278;-61
2023/02/04 04:15:33;;;;;;;15.77;8.90;;;-0.40;99.90;;;;;;4171667;28;20678;-69
2023/02/04 04:17:34;;;;;;;15.47;9.60;;;-0.50;99.90;;;;;;4162250;28;20910;-62
2023/02/04 04:19:35;;;;;;;16.00;9.03;;;-0.50;99.90;;;;;;4162299;28;20345;-67
2023/02/04 04:21:36;;;;;;;24.50;12.10;;;-0.40;99.90;;;;;;4143962;28;20302;-62
2023/02/04 04:23:38;;;;;;;14.20;8.67;;;-0.40;99.90;;;;;;4163208;28;20324;-62
2023/02/04 04:25:39;;;;;;;17.13;9.63;;;-0.40;99.90;;;;;;4162237;28;20308;-69
2023/02/04 04:27:40;;;;;;;15.23;8.27;;;-0.40;99.90;;;;;;4162396;28;20317;-62
2023/02/04 04:29:41;;;;;;;17.30;9.03;;;-0.40;99.90;;;;;;4162595;28;20781;-63
2023/02/04 04:31:43;;;;;;;18.17;9.83;;;-0.30;99.90;;;;;;4166014;28;20325;-62
2023/02/04 04:33:44;;;;;;;14.40;8.03;;;-0.30;99.90;;;;;;4163835;28;20267;-62
2023/02/04 04:35:45;;;;;;;14.07;8.13;;;-0.30;99.90;;;;;;4166784;28;20270;-63
2023/02/04 04:37:47;;;;;;;11.20;7.27;;;-0.30;99.90;;;;;;4162978;28;20678;-62
2023/02/04 04:39:48;;;;;;;16.07;8.47;;;-0.30;99.90;;;;;;4161653;28;20340;-62
2023/02/04 04:41:49;;;;;;;15.63;8.77;;;-0.30;99.90;;;;;;4162732;28;20309;-67
2023/02/04 04:43:50;;;;;;;13.97;8.43;;;-0.30;99.90;;;;;;4161647;28;20278;-62
2023/02/04 04:45:51;;;;;;;13.00;7.63;;;-0.30;99.90;;;;;;4162728;28;20270;-62
2023/02/04 04:47:52;;;;;;;16.80;7.67;;;-0.20;99.90;;;;;;4161425;28;20313;-61
2023/02/04 04:49:53;;;;;;;12.43;7.67;;;-0.30;99.90;;;;;;4162216;28;20270;-62
2023/02/04 04:51:54;;;;;;;11.97;7.37;;;-0.30;99.90;;;;;;4161833;28;20289;-62
2023/02/04 04:53:56;;;;;;;16.23;7.47;;;-0.30;99.90;;;;;;4160752;28;20271;-63
2023/02/04 04:55:57;;;;;;;15.17;8.10;;;-0.30;99.90;;;;;;4171461;28;20269;-62
2023/02/04 04:57:58;;;;;;;13.43;7.20;;;-0.30;99.90;;;;;;4177453;28;20336;-62
2023/02/04 04:59:59;;;;;;;13.27;8.17;;;-0.40;99.90;;;;;;4176838;28;20329;-62
2023/02/04 05:02:00;;;;;;;14.90;8.73;;;-0.30;99.90;;;;;;4177272;28;20270;-62
2023/02/04 05:04:02;;;;;;;14.73;7.73;;;-0.30;99.90;;;;;;4178054;28;20415;-61
2023/02/04 05:06:04;;;;;;;11.63;6.77;;;-0.30;99.90;;;;;;4175325;28;20805;-64
2023/02/04 05:08:09;;;;;;;12.40;7.40;;;-0.30;99.90;;;;;;4178419;28;20316;-64
2023/02/04 05:10:10;;;;;;;14.67;9.00;;;-0.20;99.90;;;;;;4159684;28;20337;-69
2023/02/04 05:12:12;;;;;;;14.80;8.23;;;-0.20;99.90;;;;;;4177897;28;20270;-63
2023/02/04 05:14:13;;;;;;;12.83;8.30;;;-0.20;99.90;;;;;;4177621;28;20274;-68
2023/02/04 05:16:15;;;;;;;14.40;7.93;;;-0.20;99.90;;;;;;4178328;28;20624;-62
2023/02/04 05:18:16;;;;;;;14.90;7.83;;;-0.20;99.90;;;;;;4177560;28;20316;-61
2023/02/04 05:20:17;;;;;;;12.17;7.37;;;-0.30;99.90;;;;;;4177778;28;20696;-64
2023/02/04 05:22:18;;;;;;;12.63;7.60;;;-0.30;99.90;;;;;;4177378;28;20757;-69
2023/02/04 05:24:19;;;;;;;12.97;7.67;;;-0.30;99.90;;;;;;4168093;28;20336;-68
2023/02/04 05:26:20;;;;;;;15.40;8.50;;;-0.20;99.90;;;;;;4166657;28;20324;-60
2023/02/04 05:28:22;;;;;;;13.57;7.90;;;-0.20;99.90;;;;;;4170216;28;20317;-62
2023/02/04 05:30:23;;;;;;;12.53;7.50;;;-0.20;99.90;;;;;;4160872;28;20271;-60
2023/02/04 05:32:24;;;;;;;12.77;7.13;;;-0.20;99.90;;;;;;4160652;28;20694;-65
2023/02/04 05:34:25;;;;;;;13.10;7.40;;;-0.20;99.90;;;;;;4164323;28;20300;-61
2023/02/04 05:36:26;;;;;;;14.27;8.17;;;-0.20;99.90;;;;;;4172819;28;20330;-61
2023/02/04 05:38:27;;;;;;;10.37;6.67;;;-0.20;99.90;;;;;;4178463;28;20372;-61
2023/02/04 05:40:28;;;;;;;11.00;6.23;;;-0.20;99.90;;;;;;4177082;28;20364;-60
2023/02/04 05:42:30;;;;;;;13.27;6.13;;;-0.20;99.90;;;;;;4178274;28;20419;-64
2023/02/04 05:44:31;;;;;;;13.73;8.20;;;-0.20;99.90;;;;;;4175855;28;20254;-62
2023/02/04 05:46:32;;;;;;;15.53;9.33;;;-0.20;99.90;;;;;;4178273;28;20331;-61
2023/02/04 05:48:33;;;;;;;12.93;7.73;;;-0.20;99.90;;;;;;4176234;28;20274;-61
2023/02/04 05:50:34;;;;;;;12.37;6.50;;;-0.20;99.90;;;;;;4178150;28;20323;-60
2023/02/04 05:52:35;;;;;;;12.63;6.67;;;-0.20;99.90;;;;;;4177405;28;20312;-61
2023/02/04 05:54:37;;;;;;;13.17;7.10;;;-0.20;99.90;;;;;;4177175;28;20339;-62
2023/02/04 05:56:38;;;;;;;12.00;7.43;;;-0.20;99.90;;;;;;4176618;28;20319;-61
2023/02/04 05:58:39;;;;;;;20.77;8.10;;;-0.20;99.90;;;;;;4176841;28;20689;-61
2023/02/04 06:00:40;;;;;;;15.30;8.57;;;-0.20;99.90;;;;;;4172666;28;20306;-61
2023/02/04 06:02:41;;;;;;;14.27;8.07;;;-0.20;99.90;;;;;;4160594;28;20271;-62
2023/02/04 06:04:42;;;;;;;16.67;8.87;;;-0.20;99.90;;;;;;4161220;28;20263;-62
2023/02/04 06:06:44;;;;;;;14.50;9.03;;;-0.30;99.90;;;;;;4162546;28;20319;-61
2023/02/04 06:08:45;;;;;;;14.87;9.03;;;-0.40;99.90;;;;;;4177994;28;20843;-61
2023/02/04 06:10:46;;;;;;;16.40;9.53;;;-0.40;99.90;;;;;;4173639;28;20340;-61
2023/02/04 06:12:47;;;;;;;15.87;9.23;;;-0.40;99.90;;;;;;4162881;28;20353;-61
2023/02/04 06:14:48;;;;;;;16.83;8.27;;;-0.40;99.90;;;;;;4176779;28;20668;-62
2023/02/04 06:16:49;;;;;;;17.13;9.17;;;-0.40;99.90;;;;;;4177565;28;20296;-61
2023/02/04 06:18:51;;;;;;;16.27;10.00;;;-0.40;99.90;;;;;;4176700;28;20255;-61
2023/02/04 06:20:52;;;;;;;17.87;10.33;;;-0.40;99.90;;;;;;4176917;28;20363;-61
2023/02/04 06:22:53;;;;;;;20.40;10.93;;;-0.40;99.90;;;;;;4177300;28;20726;-61
2023/02/04 06:24:54;;;;;;;22.77;12.03;;;-0.50;99.90;;;;;;4177550;28;20261;-61
2023/02/04 06:26:55;;;;;;;22.13;11.53;;;-0.40;99.90;;;;;;4176998;28;20327;-62
2023/02/04 06:28:56;;;;;;;25.27;12.10;;;-0.40;99.90;;;;;;4177249;28;21054;-62
2023/02/04 06:30:57;;;;;;;26.67;12.97;;;-0.40;99.90;;;;;;4159469;28;20734;-62
2023/02/04 06:32:59;;;;;;;28.30;14.40;;;-0.40;99.90;;;;;;4176342;28;20347;-63
2023/02/04 06:35:00;;;;;;;33.23;14.97;;;-0.40;99.90;;;;;;4158219;28;20274;-60
2023/02/04 06:37:01;;;;;;;34.23;16.37;;;-0.40;99.90;;;;;;4170355;28;20265;-60
2023/02/04 06:39:03;;;;;;;28.23;14.37;;;-0.30;99.90;;;;;;4164056;28;20831;-60
2023/02/04 06:41:04;;;;;;;25.13;14.27;;;-0.30;99.90;;;;;;4165299;28;20302;-60
2023/02/04 06:43:05;;;;;;;26.57;14.73;;;-0.30;99.90;;;;;;4177318;28;20273;-60
2023/02/04 06:45:07;;;;;;;30.03;16.70;;;-0.30;99.90;;;;;;4173756;28;20274;-66
2023/02/04 06:47:08;;;;;;;30.90;15.53;;;-0.30;99.90;;;;;;4166047;28;20351;-61
2023/02/04 06:49:09;;;;;;;32.23;17.17;;;-0.20;99.90;;;;;;4175338;28;20754;-64
2023/02/04 06:51:10;;;;;;;30.17;16.33;;;-0.20;99.90;;;;;;4172021;28;20267;-62
2023/02/04 06:53:11;;;;;;;33.00;17.43;;;-0.10;99.90;;;;;;4160152;28;20682;-61
2023/02/04 06:55:14;;;;;;;31.97;15.77;;;0.00;99.90;;;;;;4160535;28;20267;-61
2023/02/04 06:57:15;;;;;;;35.57;16.87;;;0.10;99.90;;;;;;4162900;28;20340;-62
2023/02/04 06:59:16;;;;;;;32.27;15.63;;;0.10;99.90;;;;;;4176703;28;20733;-65
2023/02/04 07:01:17;;;;;;;28.70;15.37;;;0.20;99.90;;;;;;4175383;28;20455;-61
2023/02/04 07:03:18;;;;;;;28.03;15.03;;;0.20;99.90;;;;;;4176632;28;20323;-61
2023/02/04 07:05:19;;;;;;;23.40;13.67;;;0.20;99.90;;;;;;4177460;28;20715;-61
2023/02/04 07:07:21;;;;;;;26.50;14.27;;;0.30;99.90;;;;;;4175636;28;20270;-60
2023/02/04 07:09:22;;;;;;;28.50;15.27;;;0.40;99.90;;;;;;4177235;28;20315;-61
2023/02/04 07:11:23;;;;;;;30.47;16.37;;;0.40;99.90;;;;;;4176297;28;20258;-65
2023/02/04 07:13:24;;;;;;;28.40;15.17;;;0.30;99.90;;;;;;4176318;28;20319;-61
2023/02/04 07:15:25;;;;;;;30.90;16.37;;;0.20;99.90;;;;;;4176169;28;20270;-61
2023/02/04 07:17:26;;;;;;;31.90;16.10;;;0.30;99.90;;;;;;4178758;28;20266;-61
2023/02/04 07:19:27;;;;;;;28.00;16.30;;;0.20;99.90;;;;;;4160135;28;20702;-61
2023/02/04 07:21:29;;;;;;;30.63;15.50;;;0.30;99.90;;;;;;4180302;28;20274;-61
2023/02/04 07:23:30;;;;;;;24.00;13.23;;;0.30;99.90;;;;;;4176366;28;20296;-61
2023/02/04 07:25:31;;;;;;;24.30;12.97;;;0.30;99.90;;;;;;4178123;28;20278;-61
2023/02/04 07:27:32;;;;;;;30.20;15.80;;;0.30;99.90;;;;;;4178448;28;20304;-62
2023/02/04 07:29:33;;;;;;;28.03;15.60;;;0.30;99.90;;;;;;4179226;28;20278;-63
2023/02/04 07:31:34;;;;;;;28.10;15.10;;;0.40;99.90;;;;;;4170626;28;20742;-61
2023/02/04 07:33:36;;;;;;;27.27;15.13;;;0.30;99.90;;;;;;4144643;28;20333;-61
2023/02/04 07:35:37;;;;;;;26.73;14.90;;;0.40;99.90;;;;;;4165544;28;20801;-61
2023/02/04 07:37:38;;;;;;;28.57;16.10;;;0.50;99.90;;;;;;4171699;28;20325;-61
2023/02/04 07:39:39;;;;;;;25.23;14.53;;;0.60;99.90;;;;;;4165112;28;20263;-66
2023/02/04 07:41:40;;;;;;;26.60;14.70;;;0.60;99.90;;;;;;4166173;28;20351;-61
2023/02/04 07:43:41;;;;;;;31.50;15.33;;;0.70;99.90;;;;;;4165185;28;20275;-62
2023/02/04 07:45:42;;;;;;;28.70;14.50;;;0.60;99.90;;;;;;4164129;28;20341;-61
2023/02/04 07:47:43;;;;;;;25.13;14.53;;;0.60;99.90;;;;;;4165534;28;20824;-62
2023/02/04 07:49:44;;;;;;;28.17;13.33;;;0.70;99.90;;;;;;4173856;28;20278;-61
2023/02/04 07:51:46;;;;;;;25.73;12.47;;;0.60;99.90;;;;;;4176190;28;20332;-62
2023/02/04 07:53:47;;;;;;;24.50;12.70;;;0.60;99.90;;;;;;4167127;28;20271;-62
2023/02/04 07:55:48;;;;;;;23.50;11.13;;;0.60;99.90;;;;;;4145303;28;20307;-60
2023/02/04 07:57:49;;;;;;;23.63;11.27;;;0.60;99.90;;;;;;4162044;28;20711;-61
2023/02/04 07:59:50;;;;;;;20.93;11.37;;;0.60;99.90;;;;;;4164043;28;20282;-63
2023/02/04 08:01:51;;;;;;;25.97;13.87;;;0.70;99.90;;;;;;4175824;28;20266;-64
2023/02/04 08:03:52;;;;;;;29.73;14.60;;;0.70;99.90;;;;;;4166867;28;20263;-69
2023/02/04 08:05:54;;;;;;;29.03;15.93;;;0.80;99.90;;;;;;4178823;28;20266;-61
2023/02/04 08:07:57;;;;;;;27.27;15.07;;;0.80;99.90;;;;;;4174109;28;20266;-61
2023/02/04 08:09:58;;;;;;;31.17;16.93;;;0.70;99.90;;;;;;4162328;28;20332;-61
2023/02/04 08:11:59;;;;;;;30.17;16.50;;;0.70;99.90;;;;;;4149252;28;20317;-62
2023/02/04 08:14:00;;;;;;;27.87;15.17;;;0.70;99.90;;;;;;4161660;28;20700;-62
2023/02/04 08:16:01;;;;;;;26.20;13.97;;;0.70;99.90;;;;;;4178236;28;20343;-61
2023/02/04 08:18:03;;;;;;;23.03;12.27;;;0.70;99.90;;;;;;4179337;28;21026;-67
2023/02/04 08:20:04;;;;;;;22.97;11.67;;;0.70;99.90;;;;;;4178008;28;20332;-63
2023/02/04 08:22:05;;;;;;;27.77;14.17;;;0.70;99.90;;;;;;4179336;28;20680;-66
2023/02/04 08:24:06;;;;;;;24.50;13.00;;;0.70;99.90;;;;;;4177340;28;20286;-61
2023/02/04 08:26:10;;;;;;;24.27;13.03;;;0.70;99.90;;;;;;4178814;28;20677;-63
2023/02/04 08:28:11;;;;;;;28.00;13.23;;;0.80;99.90;;;;;;4177428;28;20718;-61
2023/02/04 08:30:12;;;;;;;23.53;11.97;;;0.80;99.90;;;;;;4177715;28;20274;-62
2023/02/04 08:32:13;;;;;;;20.73;11.50;;;0.90;99.90;;;;;;4177861;28;20728;-64
2023/02/04 08:34:15;;;;;;;20.57;9.73;;;0.90;99.90;;;;;;4159511;28;20639;-64
2023/02/04 08:36:16;;;;;;;17.53;9.53;;;0.90;99.90;;;;;;4177535;28;20603;-64
2023/02/04 08:38:17;;;;;;;21.33;11.53;;;1.10;99.90;;;;;;4177477;28;20306;-64
2023/02/04 08:40:18;;;;;;;20.97;11.80;;;1.20;99.90;;;;;;4178817;28;20312;-66
2023/02/04 08:42:19;;;;;;;23.67;11.13;;;1.20;99.90;;;;;;4177797;28;20274;-62
2023/02/04 08:44:21;;;;;;;25.80;13.40;;;1.30;99.90;;;;;;4179883;28;20982;-70
2023/02/04 08:46:22;;;;;;;27.70;13.90;;;1.40;99.90;;;;;;4178762;28;20359;-67
2023/02/04 08:48:23;;;;;;;25.07;12.73;;;1.50;99.90;;;;;;4179123;28;20262;-65
2023/02/04 08:50:25;;;;;;;30.77;15.20;;;1.40;99.90;;;;;;4177817;28;20262;-65
2023/02/04 08:52:26;;;;;;;34.43;16.90;;;1.40;99.90;;;;;;4178483;28;20726;-65
2023/02/04 08:54:28;;;;;;;34.50;15.10;;;1.40;99.90;;;;;;4177972;28;20648;-66
2023/02/04 08:56:30;;;;;;;35.90;14.90;;;1.40;99.90;;;;;;4179063;28;20270;-67
2023/02/04 08:58:31;;;;;;;27.13;14.03;;;1.40;99.90;;;;;;4177965;28;20383;-66
2023/02/04 09:00:32;;;;;;;27.90;12.80;;;1.40;99.90;;;;;;4177175;28;20320;-64
2023/02/04 09:02:33;;;;;;;20.90;9.83;;;1.50;99.90;;;;;;4177995;28;20404;-63
2023/02/04 09:04:34;;;;;;;21.33;9.40;;;1.40;99.90;;;;;;4178053;28;20292;-66
2023/02/04 09:06:35;;;;;;;17.53;8.80;;;1.40;99.90;;;;;;4179097;28;20316;-66
2023/02/04 09:08:36;;;;;;;17.43;8.77;;;1.40;99.90;;;;;;4177533;28;20319;-66
2023/02/04 09:10:38;;;;;;;14.57;8.40;;;1.30;99.90;;;;;;4178692;28;20262;-65
2023/02/04 09:12:39;;;;;;;14.40;7.93;;;1.30;99.90;;;;;;4177146;28;20718;-65
2023/02/04 09:14:40;;;;;;;14.37;7.87;;;1.30;99.90;;;;;;4161116;28;20647;-64
2023/02/04 09:16:41;;;;;;;13.47;7.33;;;1.20;99.90;;;;;;4177546;28;20270;-62
2023/02/04 09:18:42;;;;;;;14.20;7.30;;;1.20;99.90;;;;;;4177225;28;20765;-63
2023/02/04 09:20:44;;;;;;;14.77;7.87;;;1.20;99.90;;;;;;4177060;28;20294;-62
2023/02/04 09:22:46;;;;;;;14.20;7.40;;;1.10;99.90;;;;;;4178577;28;20278;-62
2023/02/04 09:24:48;;;;;;;19.30;9.03;;;1.10;99.90;;;;;;4176643;28;20278;-64
2023/02/04 09:26:49;;;;;;;23.17;11.83;;;1.10;99.90;;;;;;4178251;28;20792;-66
2023/02/04 09:28:50;;;;;;;23.80;10.83;;;1.20;99.90;;;;;;4177518;28;20308;-63
2023/02/04 09:30:51;;;;;;;20.23;10.33;;;1.20;99.90;;;;;;4160199;28;20340;-66
2023/02/04 09:32:52;;;;;;;19.43;10.53;;;1.20;99.90;;;;;;4177895;28;20645;-73
2023/02/04 09:34:53;;;;;;;18.43;9.30;;;1.20;99.90;;;;;;4177712;28;20269;-61
2023/02/04 09:36:55;;;;;;;25.93;12.33;;;1.20;99.90;;;;;;4178159;28;20274;-62
2023/02/04 09:38:56;;;;;;;22.67;10.70;;;1.20;99.90;;;;;;4176917;28;20759;-62
2023/02/04 09:41:01;;;;;;;21.63;11.47;;;1.20;99.90;;;;;;4178061;28;20770;-62
2023/02/04 09:43:04;;;;;;;26.50;12.17;;;1.30;99.90;;;;;;4177336;28;20312;-62
2023/02/04 09:45:06;;;;;;;29.20;11.93;;;1.30;99.90;;;;;;4178490;28;20266;-63
2023/02/04 09:47:12;;;;;;;30.27;15.67;;;1.30;99.90;;;;;;4177279;28;20351;-64
2023/02/04 09:49:13;;;;;;;27.67;13.97;;;1.30;99.90;;;;;;4160117;28;20337;-65
2023/02/04 09:51:18;;;;;;;29.50;13.67;;;1.30;99.90;;;;;;4177109;28;20262;-63
2023/02/04 09:53:22;;;;;;;29.03;14.50;;;1.40;99.90;;;;;;4178915;28;20277;-63
2023/02/04 09:55:37;;;;;;;23.27;12.20;;;1.30;99.90;;;;;;4177113;28;20316;-63
2023/02/04 09:57:40;;;;;;;21.20;11.13;;;1.30;99.90;;;;;;4177718;28;21026;-64
2023/02/04 09:59:43;;;;;;;21.90;11.17;;;1.30;99.90;;;;;;4176932;28;20273;-64
2023/02/04 10:01:47;;;;;;;22.27;10.87;;;1.40;99.90;;;;;;4176897;28;20286;-63
2023/02/04 10:03:50;;;;;;;22.53;10.00;;;1.30;99.90;;;;;;4176357;28;20266;-63
2023/02/04 10:05:51;;;;;;;27.30;12.57;;;1.30;99.90;;;;;;4177369;28;20415;-63
2023/02/04 10:07:53;;;;;;;24.17;11.90;;;1.40;99.90;;;;;;4175870;28;20258;-64
2023/02/04 10:09:54;;;;;;;20.83;10.40;;;1.40;99.90;;;;;;4176800;28;20347;-71
2023/02/04 10:11:55;;;;;;;24.70;11.63;;;1.40;99.90;;;;;;4176114;28;20281;-63
2023/02/04 10:13:57;;;;;;;24.00;11.17;;;1.40;99.90;;;;;;4176361;28;20351;-62
2023/02/04 10:15:58;;;;;;;22.47;11.93;;;1.40;99.90;;;;;;4177253;28;20278;-65
2023/02/04 10:18:06;;;;;;;25.03;12.03;;;1.40;99.90;;;;;;4175454;28;20282;-62
2023/02/04 10:20:19;;;;;;;24.30;11.97;;;1.50;99.90;;;;;;4162107;28;20348;-63
2023/02/04 10:22:21;;;;;;;25.40;12.00;;;1.50;99.90;;;;;;4172649;28;20684;-64
2023/02/04 10:24:29;;;;;;;27.07;12.60;;;1.40;99.90;;;;;;4172288;28;20273;-63